sensor_id;sensor_type;location;lat;lon;timestamp;P1;durP1;ratioP1;P2;durP2;ratioP2
81306;SDS011;70775;50.846;3.224;2023-08-06T00:00:36;6.45;;;1.70;;
81306;SDS011;70775;50.846;3.224;2023-08-06T00:03:02;5.90;;;1.48;;
81306;SDS011;70775;50.846;3.224;2023-08-06T00:05:29;7.15;;;2.10;;
81306;SDS011;70775;50.846;3.224;2023-08-06T00:07:56;8.43;;;1.80;;
81306;SDS011;70775;50.846;3.224;2023-08-06T00:10:22;5.57;;;1.60;;
81306;SDS011;70775;50.846;3.224;2023-08-06T00:12:47;6.72;;;1.80;;
81306;SDS011;70775;50.846;3.224;2023-08-06T00:15:13;7.53;;;2.30;;
81306;SDS011;70775;50.846;3.224;2023-08-06T00:17:39;3.28;;;1.20;;
81306;SDS011;70775;50.846;3.224;2023-08-06T00:20:05;4.22;;;1.17;;
81306;SDS011;70775;50.846;3.224;2023-08-06T00:22:32;3.88;;;1.38;;
81306;SDS011;70775;50.846;3.224;2023-08-06T00:24:58;3.80;;;1.63;;
81306;SDS011;70775;50.846;3.224;2023-08-06T00:27:24;5.63;;;1.52;;
81306;SDS011;70775;50.846;3.224;2023-08-06T00:29:51;6.85;;;1.50;;
81306;SDS011;70775;50.846;3.224;2023-08-06T00:32:17;6.43;;;1.45;;
81306;SDS011;70775;50.846;3.224;2023-08-06T00:34:43;4.38;;;1.50;;
81306;SDS011;70775;50.846;3.224;2023-08-06T00:37:09;6.90;;;1.48;;
81306;SDS011;70775;50.846;3.224;2023-08-06T00:39:34;6.20;;;1.30;;
81306;SDS011;70775;50.846;3.224;2023-08-06T00:42:01;4.38;;;1.38;;
81306;SDS011;70775;50.846;3.224;2023-08-06T00:44:27;6.20;;;1.50;;
81306;SDS011;70775;50.846;3.224;2023-08-06T00:46:54;8.75;;;1.90;;
81306;SDS011;70775;50.846;3.224;2023-08-06T00:49:20;5.18;;;1.23;;
81306;SDS011;70775;50.846;3.224;2023-08-06T00:51:47;6.35;;;1.50;;
81306;SDS011;70775;50.846;3.224;2023-08-06T00:54:15;4.85;;;1.92;;
81306;SDS011;70775;50.846;3.224;2023-08-06T00:56:41;6.60;;;1.40;;
81306;SDS011;70775;50.846;3.224;2023-08-06T00:59:07;3.95;;;1.60;;
81306;SDS011;70775;50.846;3.224;2023-08-06T01:01:35;8.63;;;1.98;;
81306;SDS011;70775;50.846;3.224;2023-08-06T01:04:02;6.50;;;1.45;;
81306;SDS011;70775;50.846;3.224;2023-08-06T01:09:54;5.40;;;1.58;;
81306;SDS011;70775;50.846;3.224;2023-08-06T01:12:36;6.35;;;1.80;;
81306;SDS011;70775;50.846;3.224;2023-08-06T01:15:18;5.30;;;2.03;;
81306;SDS011;70775;50.846;3.224;2023-08-06T01:17:47;3.88;;;1.70;;
81306;SDS011;70775;50.846;3.224;2023-08-06T01:20:13;3.70;;;2.10;;
81306;SDS011;70775;50.846;3.224;2023-08-06T01:22:41;6.40;;;2.03;;
81306;SDS011;70775;50.846;3.224;2023-08-06T01:25:07;8.15;;;2.10;;
81306;SDS011;70775;50.846;3.224;2023-08-06T01:27:34;8.38;;;2.38;;
81306;SDS011;70775;50.846;3.224;2023-08-06T01:32:49;7.57;;;2.80;;
81306;SDS011;70775;50.846;3.224;2023-08-06T01:35:19;9.50;;;3.72;;
81306;SDS011;70775;50.846;3.224;2023-08-06T01:37:46;9.85;;;4.28;;
81306;SDS011;70775;50.846;3.224;2023-08-06T01:40:13;10.35;;;5.05;;
81306;SDS011;70775;50.846;3.224;2023-08-06T01:42:38;12.60;;;5.97;;
81306;SDS011;70775;50.846;3.224;2023-08-06T01:45:05;16.88;;;5.97;;
81306;SDS011;70775;50.846;3.224;2023-08-06T01:47:32;11.45;;;5.13;;
81306;SDS011;70775;50.846;3.224;2023-08-06T01:49:58;9.20;;;4.57;;
81306;SDS011;70775;50.846;3.224;2023-08-06T01:52:25;9.57;;;3.50;;
81306;SDS011;70775;50.846;3.224;2023-08-06T01:54:51;8.88;;;3.65;;
81306;SDS011;70775;50.846;3.224;2023-08-06T01:57:17;8.40;;;3.55;;
81306;SDS011;70775;50.846;3.224;2023-08-06T01:59:43;5.80;;;3.33;;
81306;SDS011;70775;50.846;3.224;2023-08-06T02:02:08;12.02;;;3.22;;
81306;SDS011;70775;50.846;3.224;2023-08-06T02:04:34;7.72;;;3.10;;
81306;SDS011;70775;50.846;3.224;2023-08-06T02:07:00;13.38;;;3.72;;
81306;SDS011;70775;50.846;3.224;2023-08-06T02:09:26;8.77;;;3.70;;
81306;SDS011;70775;50.846;3.224;2023-08-06T02:11:52;8.18;;;3.72;;
81306;SDS011;70775;50.846;3.224;2023-08-06T02:14:17;7.50;;;3.80;;
81306;SDS011;70775;50.846;3.224;2023-08-06T02:16:44;8.07;;;3.92;;
81306;SDS011;70775;50.846;3.224;2023-08-06T02:19:10;10.18;;;4.07;;
81306;SDS011;70775;50.846;3.224;2023-08-06T02:21:35;14.02;;;4.80;;
81306;SDS011;70775;50.846;3.224;2023-08-06T02:24:01;15.23;;;5.25;;
81306;SDS011;70775;50.846;3.224;2023-08-06T02:26:27;11.95;;;4.78;;
81306;SDS011;70775;50.846;3.224;2023-08-06T02:28:52;9.70;;;5.07;;
81306;SDS011;70775;50.846;3.224;2023-08-06T02:31:19;8.85;;;4.65;;
81306;SDS011;70775;50.846;3.224;2023-08-06T02:33:46;11.55;;;4.72;;
81306;SDS011;70775;50.846;3.224;2023-08-06T02:36:11;10.98;;;4.43;;
81306;SDS011;70775;50.846;3.224;2023-08-06T02:38:38;13.95;;;3.97;;
81306;SDS011;70775;50.846;3.224;2023-08-06T02:41:05;14.85;;;5.18;;
81306;SDS011;70775;50.846;3.224;2023-08-06T02:43:31;11.20;;;4.18;;
81306;SDS011;70775;50.846;3.224;2023-08-06T02:45:57;11.88;;;4.03;;
81306;SDS011;70775;50.846;3.224;2023-08-06T02:48:26;12.60;;;4.40;;
81306;SDS011;70775;50.846;3.224;2023-08-06T02:50:51;14.10;;;4.47;;
81306;SDS011;70775;50.846;3.224;2023-08-06T02:53:19;11.43;;;3.85;;
81306;SDS011;70775;50.846;3.224;2023-08-06T02:55:45;11.95;;;3.95;;
81306;SDS011;70775;50.846;3.224;2023-08-06T02:58:14;17.02;;;4.53;;
81306;SDS011;70775;50.846;3.224;2023-08-06T03:00:40;12.63;;;4.60;;
81306;SDS011;70775;50.846;3.224;2023-08-06T03:03:06;11.75;;;4.05;;
81306;SDS011;70775;50.846;3.224;2023-08-06T03:05:31;11.65;;;4.97;;
81306;SDS011;70775;50.846;3.224;2023-08-06T03:07:59;18.85;;;5.03;;
81306;SDS011;70775;50.846;3.224;2023-08-06T03:10:25;14.15;;;5.05;;
81306;SDS011;70775;50.846;3.224;2023-08-06T03:12:50;15.23;;;4.72;;
81306;SDS011;70775;50.846;3.224;2023-08-06T03:15:17;14.85;;;5.32;;
81306;SDS011;70775;50.846;3.224;2023-08-06T03:17:42;13.13;;;4.65;;
81306;SDS011;70775;50.846;3.224;2023-08-06T03:20:09;11.50;;;4.13;;
81306;SDS011;70775;50.846;3.224;2023-08-06T03:22:35;13.82;;;4.63;;
81306;SDS011;70775;50.846;3.224;2023-08-06T03:25:01;24.33;;;6.78;;
81306;SDS011;70775;50.846;3.224;2023-08-06T03:27:28;15.23;;;5.57;;
81306;SDS011;70775;50.846;3.224;2023-08-06T03:29:53;14.35;;;4.72;;
81306;SDS011;70775;50.846;3.224;2023-08-06T03:32:19;10.60;;;4.43;;
81306;SDS011;70775;50.846;3.224;2023-08-06T03:34:45;16.02;;;4.97;;
81306;SDS011;70775;50.846;3.224;2023-08-06T03:37:10;13.90;;;4.85;;
81306;SDS011;70775;50.846;3.224;2023-08-06T03:39:36;16.48;;;4.75;;
81306;SDS011;70775;50.846;3.224;2023-08-06T03:42:02;15.10;;;5.82;;
81306;SDS011;70775;50.846;3.224;2023-08-06T03:44:28;20.52;;;6.60;;
81306;SDS011;70775;50.846;3.224;2023-08-06T03:46:53;11.25;;;5.00;;
81306;SDS011;70775;50.846;3.224;2023-08-06T03:49:19;13.25;;;5.35;;
81306;SDS011;70775;50.846;3.224;2023-08-06T03:51:45;13.98;;;5.50;;
81306;SDS011;70775;50.846;3.224;2023-08-06T03:54:11;14.38;;;5.50;;
81306;SDS011;70775;50.846;3.224;2023-08-06T03:56:36;13.38;;;5.40;;
81306;SDS011;70775;50.846;3.224;2023-08-06T03:59:02;13.07;;;5.15;;
81306;SDS011;70775;50.846;3.224;2023-08-06T04:01:27;13.98;;;5.13;;
81306;SDS011;70775;50.846;3.224;2023-08-06T04:03:53;13.57;;;5.20;;
81306;SDS011;70775;50.846;3.224;2023-08-06T04:06:19;13.10;;;5.18;;
81306;SDS011;70775;50.846;3.224;2023-08-06T04:08:44;13.32;;;4.65;;
81306;SDS011;70775;50.846;3.224;2023-08-06T04:11:10;12.57;;;5.03;;
81306;SDS011;70775;50.846;3.224;2023-08-06T04:13:35;14.88;;;5.35;;
81306;SDS011;70775;50.846;3.224;2023-08-06T04:16:04;10.48;;;3.95;;
81306;SDS011;70775;50.846;3.224;2023-08-06T04:18:30;14.98;;;5.38;;
81306;SDS011;70775;50.846;3.224;2023-08-06T04:20:56;12.82;;;4.50;;
81306;SDS011;70775;50.846;3.224;2023-08-06T04:23:22;14.40;;;4.90;;
81306;SDS011;70775;50.846;3.224;2023-08-06T04:25:48;11.80;;;4.85;;
81306;SDS011;70775;50.846;3.224;2023-08-06T04:28:14;16.63;;;4.47;;
81306;SDS011;70775;50.846;3.224;2023-08-06T04:30:40;9.93;;;4.03;;
81306;SDS011;70775;50.846;3.224;2023-08-06T04:33:05;12.70;;;4.85;;
81306;SDS011;70775;50.846;3.224;2023-08-06T04:35:31;11.27;;;4.50;;
81306;SDS011;70775;50.846;3.224;2023-08-06T04:37:57;13.60;;;5.10;;
81306;SDS011;70775;50.846;3.224;2023-08-06T04:40:22;10.10;;;4.05;;
81306;SDS011;70775;50.846;3.224;2023-08-06T04:42:48;12.68;;;4.22;;
81306;SDS011;70775;50.846;3.224;2023-08-06T04:45:14;12.40;;;4.20;;
81306;SDS011;70775;50.846;3.224;2023-08-06T04:47:39;9.77;;;4.30;;
81306;SDS011;70775;50.846;3.224;2023-08-06T04:50:05;13.10;;;4.40;;
81306;SDS011;70775;50.846;3.224;2023-08-06T04:52:31;9.60;;;4.00;;
81306;SDS011;70775;50.846;3.224;2023-08-06T04:54:58;8.02;;;4.00;;
81306;SDS011;70775;50.846;3.224;2023-08-06T04:57:25;9.57;;;4.32;;
81306;SDS011;70775;50.846;3.224;2023-08-06T04:59:50;18.08;;;4.13;;
81306;SDS011;70775;50.846;3.224;2023-08-06T05:02:16;14.50;;;4.75;;
81306;SDS011;70775;50.846;3.224;2023-08-06T05:04:42;11.10;;;4.57;;
81306;SDS011;70775;50.846;3.224;2023-08-06T05:07:10;11.43;;;3.72;;
81306;SDS011;70775;50.846;3.224;2023-08-06T05:09:35;10.10;;;4.30;;
81306;SDS011;70775;50.846;3.224;2023-08-06T05:12:01;9.15;;;3.92;;
81306;SDS011;70775;50.846;3.224;2023-08-06T05:14:30;9.57;;;3.70;;
81306;SDS011;70775;50.846;3.224;2023-08-06T05:16:55;10.38;;;3.40;;
81306;SDS011;70775;50.846;3.224;2023-08-06T05:19:21;11.23;;;3.13;;
81306;SDS011;70775;50.846;3.224;2023-08-06T05:21:48;8.95;;;2.58;;
81306;SDS011;70775;50.846;3.224;2023-08-06T05:24:14;10.35;;;2.03;;
81306;SDS011;70775;50.846;3.224;2023-08-06T05:26:42;12.82;;;3.17;;
81306;SDS011;70775;50.846;3.224;2023-08-06T05:29:11;11.18;;;3.22;;
81306;SDS011;70775;50.846;3.224;2023-08-06T05:31:37;8.43;;;2.08;;
81306;SDS011;70775;50.846;3.224;2023-08-06T05:34:03;9.10;;;1.80;;
81306;SDS011;70775;50.846;3.224;2023-08-06T05:36:30;5.97;;;1.52;;
81306;SDS011;70775;50.846;3.224;2023-08-06T05:38:57;11.48;;;2.47;;
81306;SDS011;70775;50.846;3.224;2023-08-06T05:41:22;11.60;;;2.75;;
81306;SDS011;70775;50.846;3.224;2023-08-06T05:43:48;12.23;;;2.40;;
81306;SDS011;70775;50.846;3.224;2023-08-06T05:46:13;7.40;;;2.17;;
81306;SDS011;70775;50.846;3.224;2023-08-06T05:48:40;10.27;;;2.60;;
81306;SDS011;70775;50.846;3.224;2023-08-06T05:51:05;6.38;;;1.63;;
81306;SDS011;70775;50.846;3.224;2023-08-06T05:53:32;7.70;;;2.13;;
81306;SDS011;70775;50.846;3.224;2023-08-06T05:55:58;7.03;;;2.58;;
81306;SDS011;70775;50.846;3.224;2023-08-06T05:58:23;7.72;;;1.98;;
81306;SDS011;70775;50.846;3.224;2023-08-06T06:00:51;8.25;;;2.33;;
81306;SDS011;70775;50.846;3.224;2023-08-06T06:03:17;13.15;;;2.67;;
81306;SDS011;70775;50.846;3.224;2023-08-06T06:05:42;8.43;;;2.90;;
81306;SDS011;70775;50.846;3.224;2023-08-06T06:08:08;8.25;;;3.53;;
81306;SDS011;70775;50.846;3.224;2023-08-06T06:10:33;8.80;;;2.90;;
81306;SDS011;70775;50.846;3.224;2023-08-06T06:13:00;14.20;;;3.60;;
81306;SDS011;70775;50.846;3.224;2023-08-06T06:15:25;14.27;;;3.10;;
81306;SDS011;70775;50.846;3.224;2023-08-06T06:17:51;17.35;;;3.63;;
81306;SDS011;70775;50.846;3.224;2023-08-06T06:20:17;9.60;;;3.05;;
81306;SDS011;70775;50.846;3.224;2023-08-06T06:22:42;10.98;;;3.55;;
81306;SDS011;70775;50.846;3.224;2023-08-06T06:25:08;14.25;;;3.88;;
81306;SDS011;70775;50.846;3.224;2023-08-06T06:27:35;10.10;;;3.88;;
81306;SDS011;70775;50.846;3.224;2023-08-06T06:30:01;8.95;;;3.17;;
81306;SDS011;70775;50.846;3.224;2023-08-06T06:32:26;7.25;;;3.00;;
81306;SDS011;70775;50.846;3.224;2023-08-06T06:34:52;16.92;;;3.33;;
81306;SDS011;70775;50.846;3.224;2023-08-06T06:37:19;9.85;;;3.25;;
81306;SDS011;70775;50.846;3.224;2023-08-06T06:39:45;10.52;;;3.20;;
81306;SDS011;70775;50.846;3.224;2023-08-06T06:42:10;10.98;;;3.10;;
81306;SDS011;70775;50.846;3.224;2023-08-06T06:44:36;8.30;;;3.17;;
81306;SDS011;70775;50.846;3.224;2023-08-06T06:47:02;12.68;;;4.13;;
81306;SDS011;70775;50.846;3.224;2023-08-06T06:49:27;10.63;;;3.20;;
81306;SDS011;70775;50.846;3.224;2023-08-06T06:51:53;8.45;;;2.50;;
81306;SDS011;70775;50.846;3.224;2023-08-06T06:54:19;10.43;;;3.22;;
81306;SDS011;70775;50.846;3.224;2023-08-06T06:56:44;7.43;;;2.50;;
81306;SDS011;70775;50.846;3.224;2023-08-06T06:59:10;10.15;;;2.83;;
81306;SDS011;70775;50.846;3.224;2023-08-06T07:01:36;8.30;;;2.55;;
81306;SDS011;70775;50.846;3.224;2023-08-06T07:04:02;7.95;;;2.60;;
81306;SDS011;70775;50.846;3.224;2023-08-06T07:06:31;7.97;;;2.33;;
81306;SDS011;70775;50.846;3.224;2023-08-06T07:08:56;9.60;;;2.95;;
81306;SDS011;70775;50.846;3.224;2023-08-06T07:11:23;8.05;;;2.63;;
81306;SDS011;70775;50.846;3.224;2023-08-06T07:13:55;6.82;;;2.38;;
81306;SDS011;70775;50.846;3.224;2023-08-06T07:16:22;8.18;;;2.33;;
81306;SDS011;70775;50.846;3.224;2023-08-06T07:18:48;8.68;;;3.17;;
81306;SDS011;70775;50.846;3.224;2023-08-06T07:21:14;6.82;;;2.50;;
81306;SDS011;70775;50.846;3.224;2023-08-06T07:23:39;4.97;;;2.20;;
81306;SDS011;70775;50.846;3.224;2023-08-06T07:26:05;6.57;;;2.38;;
81306;SDS011;70775;50.846;3.224;2023-08-06T07:28:30;7.95;;;2.50;;
81306;SDS011;70775;50.846;3.224;2023-08-06T07:30:56;9.00;;;2.15;;
81306;SDS011;70775;50.846;3.224;2023-08-06T07:33:23;6.65;;;2.05;;
81306;SDS011;70775;50.846;3.224;2023-08-06T07:35:49;9.43;;;3.08;;
81306;SDS011;70775;50.846;3.224;2023-08-06T07:38:16;6.22;;;1.92;;
81306;SDS011;70775;50.846;3.224;2023-08-06T07:40:42;9.65;;;2.90;;
81306;SDS011;70775;50.846;3.224;2023-08-06T07:43:07;8.05;;;2.72;;
81306;SDS011;70775;50.846;3.224;2023-08-06T07:45:33;6.85;;;2.53;;
81306;SDS011;70775;50.846;3.224;2023-08-06T07:48:01;9.57;;;2.20;;
81306;SDS011;70775;50.846;3.224;2023-08-06T07:50:27;9.80;;;2.70;;
81306;SDS011;70775;50.846;3.224;2023-08-06T07:52:52;9.05;;;2.60;;
81306;SDS011;70775;50.846;3.224;2023-08-06T07:55:18;7.90;;;2.17;;
81306;SDS011;70775;50.846;3.224;2023-08-06T07:57:44;8.65;;;2.10;;
81306;SDS011;70775;50.846;3.224;2023-08-06T08:00:09;9.95;;;2.60;;
81306;SDS011;70775;50.846;3.224;2023-08-06T08:02:37;9.07;;;2.55;;
81306;SDS011;70775;50.846;3.224;2023-08-06T08:05:03;11.77;;;3.50;;
81306;SDS011;70775;50.846;3.224;2023-08-06T08:07:29;6.90;;;2.70;;
81306;SDS011;70775;50.846;3.224;2023-08-06T08:09:56;7.47;;;1.90;;
81306;SDS011;70775;50.846;3.224;2023-08-06T08:12:21;6.47;;;1.80;;
81306;SDS011;70775;50.846;3.224;2023-08-06T08:14:47;8.35;;;2.05;;
81306;SDS011;70775;50.846;3.224;2023-08-06T08:17:14;6.50;;;2.05;;
81306;SDS011;70775;50.846;3.224;2023-08-06T08:19:41;7.07;;;1.88;;
81306;SDS011;70775;50.846;3.224;2023-08-06T08:22:07;7.63;;;2.13;;
81306;SDS011;70775;50.846;3.224;2023-08-06T08:24:32;6.90;;;1.95;;
81306;SDS011;70775;50.846;3.224;2023-08-06T08:26:58;6.13;;;1.92;;
81306;SDS011;70775;50.846;3.224;2023-08-06T08:29:25;8.80;;;2.20;;
81306;SDS011;70775;50.846;3.224;2023-08-06T08:31:50;9.00;;;2.92;;
81306;SDS011;70775;50.846;3.224;2023-08-06T08:34:16;6.45;;;1.80;;
81306;SDS011;70775;50.846;3.224;2023-08-06T08:36:42;9.05;;;2.42;;
81306;SDS011;70775;50.846;3.224;2023-08-06T08:39:08;9.43;;;2.42;;
81306;SDS011;70775;50.846;3.224;2023-08-06T08:41:35;9.07;;;1.90;;
81306;SDS011;70775;50.846;3.224;2023-08-06T08:44:02;6.78;;;2.67;;
81306;SDS011;70775;50.846;3.224;2023-08-06T08:46:30;6.40;;;2.03;;
81306;SDS011;70775;50.846;3.224;2023-08-06T08:48:57;9.15;;;2.30;;
81306;SDS011;70775;50.846;3.224;2023-08-06T08:51:28;9.73;;;2.35;;
81306;SDS011;70775;50.846;3.224;2023-08-06T08:53:55;4.45;;;1.83;;
81306;SDS011;70775;50.846;3.224;2023-08-06T08:56:24;9.65;;;2.70;;
81306;SDS011;70775;50.846;3.224;2023-08-06T08:58:50;8.88;;;2.67;;
81306;SDS011;70775;50.846;3.224;2023-08-06T09:01:20;5.13;;;1.77;;
81306;SDS011;70775;50.846;3.224;2023-08-06T09:03:47;6.78;;;1.85;;
81306;SDS011;70775;50.846;3.224;2023-08-06T09:06:13;10.85;;;2.28;;
81306;SDS011;70775;50.846;3.224;2023-08-06T09:08:47;9.38;;;2.58;;
81306;SDS011;70775;50.846;3.224;2023-08-06T09:11:18;7.07;;;2.10;;
81306;SDS011;70775;50.846;3.224;2023-08-06T09:13:45;7.38;;;2.17;;
81306;SDS011;70775;50.846;3.224;2023-08-06T09:16:12;5.97;;;2.42;;
81306;SDS011;70775;50.846;3.224;2023-08-06T09:18:39;8.63;;;2.17;;
81306;SDS011;70775;50.846;3.224;2023-08-06T09:21:05;4.97;;;1.85;;
81306;SDS011;70775;50.846;3.224;2023-08-06T09:23:31;10.35;;;2.92;;
81306;SDS011;70775;50.846;3.224;2023-08-06T09:25:58;8.82;;;2.33;;
81306;SDS011;70775;50.846;3.224;2023-08-06T09:28:24;8.52;;;2.42;;
81306;SDS011;70775;50.846;3.224;2023-08-06T09:31:01;7.90;;;2.95;;
81306;SDS011;70775;50.846;3.224;2023-08-06T09:33:26;6.00;;;2.15;;
81306;SDS011;70775;50.846;3.224;2023-08-06T09:35:54;6.38;;;2.40;;
81306;SDS011;70775;50.846;3.224;2023-08-06T09:38:20;7.05;;;2.40;;
81306;SDS011;70775;50.846;3.224;2023-08-06T09:40:46;8.50;;;1.90;;
81306;SDS011;70775;50.846;3.224;2023-08-06T09:43:12;6.93;;;2.22;;
81306;SDS011;70775;50.846;3.224;2023-08-06T09:45:39;8.15;;;2.10;;
81306;SDS011;70775;50.846;3.224;2023-08-06T09:48:06;9.38;;;2.50;;
81306;SDS011;70775;50.846;3.224;2023-08-06T09:50:34;10.25;;;2.47;;
81306;SDS011;70775;50.846;3.224;2023-08-06T09:53:05;6.47;;;2.63;;
81306;SDS011;70775;50.846;3.224;2023-08-06T09:55:32;7.97;;;2.72;;
81306;SDS011;70775;50.846;3.224;2023-08-06T09:57:58;5.57;;;2.78;;
81306;SDS011;70775;50.846;3.224;2023-08-06T10:00:25;12.32;;;2.88;;
81306;SDS011;70775;50.846;3.224;2023-08-06T10:02:52;5.70;;;2.47;;
81306;SDS011;70775;50.846;3.224;2023-08-06T10:05:22;6.15;;;2.40;;
81306;SDS011;70775;50.846;3.224;2023-08-06T10:07:48;6.00;;;2.55;;
81306;SDS011;70775;50.846;3.224;2023-08-06T10:10:15;6.28;;;2.13;;
81306;SDS011;70775;50.846;3.224;2023-08-06T10:12:46;8.40;;;2.88;;
81306;SDS011;70775;50.846;3.224;2023-08-06T10:15:16;7.68;;;2.95;;
81306;SDS011;70775;50.846;3.224;2023-08-06T10:17:53;8.05;;;2.60;;
81306;SDS011;70775;50.846;3.224;2023-08-06T10:20:21;8.30;;;2.83;;
81306;SDS011;70775;50.846;3.224;2023-08-06T10:23:10;7.25;;;2.60;;
81306;SDS011;70775;50.846;3.224;2023-08-06T10:25:35;10.35;;;2.78;;
81306;SDS011;70775;50.846;3.224;2023-08-06T10:28:11;9.18;;;2.80;;
81306;SDS011;70775;50.846;3.224;2023-08-06T10:30:44;10.85;;;3.25;;
81306;SDS011;70775;50.846;3.224;2023-08-06T10:33:11;9.30;;;2.55;;
81306;SDS011;70775;50.846;3.224;2023-08-06T10:35:38;7.43;;;2.33;;
81306;SDS011;70775;50.846;3.224;2023-08-06T10:38:16;8.48;;;3.42;;
81306;SDS011;70775;50.846;3.224;2023-08-06T10:40:49;12.27;;;3.42;;
81306;SDS011;70775;50.846;3.224;2023-08-06T10:43:33;8.25;;;2.25;;
81306;SDS011;70775;50.846;3.224;2023-08-06T10:46:01;6.32;;;2.25;;
81306;SDS011;70775;50.846;3.224;2023-08-06T10:48:39;4.82;;;2.17;;
81306;SDS011;70775;50.846;3.224;2023-08-06T10:51:10;5.97;;;2.33;;
81306;SDS011;70775;50.846;3.224;2023-08-06T10:53:38;6.90;;;2.10;;
81306;SDS011;70775;50.846;3.224;2023-08-06T10:58:40;9.50;;;2.15;;
81306;SDS011;70775;50.846;3.224;2023-08-06T11:01:06;6.65;;;2.55;;
81306;SDS011;70775;50.846;3.224;2023-08-06T11:03:35;9.20;;;2.33;;
81306;SDS011;70775;50.846;3.224;2023-08-06T11:06:01;4.38;;;1.90;;
81306;SDS011;70775;50.846;3.224;2023-08-06T11:08:29;6.75;;;2.42;;
81306;SDS011;70775;50.846;3.224;2023-08-06T11:11:07;11.55;;;2.70;;
81306;SDS011;70775;50.846;3.224;2023-08-06T11:13:39;11.00;;;2.47;;
81306;SDS011;70775;50.846;3.224;2023-08-06T11:16:05;13.40;;;2.67;;
81306;SDS011;70775;50.846;3.224;2023-08-06T11:18:34;6.07;;;2.40;;
81306;SDS011;70775;50.846;3.224;2023-08-06T11:21:00;5.93;;;2.28;;
81306;SDS011;70775;50.846;3.224;2023-08-06T11:23:27;8.73;;;2.42;;
81306;SDS011;70775;50.846;3.224;2023-08-06T11:25:54;9.70;;;2.60;;
81306;SDS011;70775;50.846;3.224;2023-08-06T11:28:23;4.68;;;1.70;;
81306;SDS011;70775;50.846;3.224;2023-08-06T11:30:51;6.78;;;2.20;;
81306;SDS011;70775;50.846;3.224;2023-08-06T11:33:23;7.90;;;2.42;;
81306;SDS011;70775;50.846;3.224;2023-08-06T11:35:50;9.25;;;2.55;;
81306;SDS011;70775;50.846;3.224;2023-08-06T11:38:18;6.60;;;2.30;;
81306;SDS011;70775;50.846;3.224;2023-08-06T11:40:44;8.13;;;2.35;;
81306;SDS011;70775;50.846;3.224;2023-08-06T11:43:11;6.90;;;2.05;;
81306;SDS011;70775;50.846;3.224;2023-08-06T11:45:37;7.07;;;1.88;;
81306;SDS011;70775;50.846;3.224;2023-08-06T11:48:03;5.50;;;1.90;;
81306;SDS011;70775;50.846;3.224;2023-08-06T11:50:31;5.18;;;2.40;;
81306;SDS011;70775;50.846;3.224;2023-08-06T11:53:01;14.52;;;1.90;;
81306;SDS011;70775;50.846;3.224;2023-08-06T11:55:27;9.40;;;2.03;;
81306;SDS011;70775;50.846;3.224;2023-08-06T11:57:54;8.02;;;2.33;;
81306;SDS011;70775;50.846;3.224;2023-08-06T12:00:20;5.20;;;2.20;;
81306;SDS011;70775;50.846;3.224;2023-08-06T12:02:50;12.35;;;2.25;;
81306;SDS011;70775;50.846;3.224;2023-08-06T12:05:20;7.82;;;2.40;;
81306;SDS011;70775;50.846;3.224;2023-08-06T12:07:54;5.10;;;2.22;;
81306;SDS011;70775;50.846;3.224;2023-08-06T12:10:24;5.82;;;1.92;;
81306;SDS011;70775;50.846;3.224;2023-08-06T12:12:50;8.48;;;2.63;;
81306;SDS011;70775;50.846;3.224;2023-08-06T12:15:16;5.80;;;2.05;;
81306;SDS011;70775;50.846;3.224;2023-08-06T12:17:42;11.55;;;2.30;;
81306;SDS011;70775;50.846;3.224;2023-08-06T12:20:09;5.43;;;1.90;;
81306;SDS011;70775;50.846;3.224;2023-08-06T12:22:36;6.75;;;2.50;;
81306;SDS011;70775;50.846;3.224;2023-08-06T12:25:04;7.20;;;2.40;;
81306;SDS011;70775;50.846;3.224;2023-08-06T12:27:51;8.80;;;2.20;;
81306;SDS011;70775;50.846;3.224;2023-08-06T12:30:17;5.03;;;2.28;;
81306;SDS011;70775;50.846;3.224;2023-08-06T12:32:43;7.10;;;1.98;;
81306;SDS011;70775;50.846;3.224;2023-08-06T12:35:09;5.15;;;2.05;;
81306;SDS011;70775;50.846;3.224;2023-08-06T12:37:35;5.25;;;1.88;;
81306;SDS011;70775;50.846;3.224;2023-08-06T12:40:04;7.00;;;2.30;;
81306;SDS011;70775;50.846;3.224;2023-08-06T12:42:31;7.75;;;2.35;;
81306;SDS011;70775;50.846;3.224;2023-08-06T12:44:57;7.43;;;2.22;;
81306;SDS011;70775;50.846;3.224;2023-08-06T12:47:25;9.38;;;3.75;;
81306;SDS011;70775;50.846;3.224;2023-08-06T12:49:51;6.72;;;2.28;;
81306;SDS011;70775;50.846;3.224;2023-08-06T12:52:17;5.32;;;2.20;;
81306;SDS011;70775;50.846;3.224;2023-08-06T12:54:45;9.30;;;2.65;;
81306;SDS011;70775;50.846;3.224;2023-08-06T12:57:11;5.43;;;2.20;;
81306;SDS011;70775;50.846;3.224;2023-08-06T12:59:37;7.05;;;2.17;;
81306;SDS011;70775;50.846;3.224;2023-08-06T13:02:03;6.80;;;2.10;;
81306;SDS011;70775;50.846;3.224;2023-08-06T13:04:29;6.03;;;1.73;;
81306;SDS011;70775;50.846;3.224;2023-08-06T13:06:55;4.18;;;1.80;;
81306;SDS011;70775;50.846;3.224;2023-08-06T13:09:21;8.45;;;2.20;;
81306;SDS011;70775;50.846;3.224;2023-08-06T13:11:47;5.70;;;2.20;;
81306;SDS011;70775;50.846;3.224;2023-08-06T13:14:16;5.47;;;2.08;;
81306;SDS011;70775;50.846;3.224;2023-08-06T13:16:42;5.85;;;2.13;;
81306;SDS011;70775;50.846;3.224;2023-08-06T13:19:09;5.10;;;2.00;;
81306;SDS011;70775;50.846;3.224;2023-08-06T13:21:57;3.10;;;1.90;;
81306;SDS011;70775;50.846;3.224;2023-08-06T13:24:25;5.63;;;1.77;;
81306;SDS011;70775;50.846;3.224;2023-08-06T13:26:52;5.47;;;1.50;;
81306;SDS011;70775;50.846;3.224;2023-08-06T13:29:18;5.70;;;1.95;;
81306;SDS011;70775;50.846;3.224;2023-08-06T13:31:43;7.32;;;1.80;;
81306;SDS011;70775;50.846;3.224;2023-08-06T13:34:09;5.20;;;1.80;;
81306;SDS011;70775;50.846;3.224;2023-08-06T13:36:35;4.32;;;1.65;;
81306;SDS011;70775;50.846;3.224;2023-08-06T13:39:02;6.90;;;1.92;;
81306;SDS011;70775;50.846;3.224;2023-08-06T13:41:30;7.53;;;1.90;;
81306;SDS011;70775;50.846;3.224;2023-08-06T13:43:56;4.93;;;1.70;;
81306;SDS011;70775;50.846;3.224;2023-08-06T13:46:22;4.35;;;1.63;;
81306;SDS011;70775;50.846;3.224;2023-08-06T13:48:48;6.80;;;1.90;;
81306;SDS011;70775;50.846;3.224;2023-08-06T13:51:16;7.80;;;1.92;;
81306;SDS011;70775;50.846;3.224;2023-08-06T13:53:42;7.00;;;2.38;;
81306;SDS011;70775;50.846;3.224;2023-08-06T13:56:09;5.13;;;1.73;;
81306;SDS011;70775;50.846;3.224;2023-08-06T13:58:37;5.05;;;1.60;;
81306;SDS011;70775;50.846;3.224;2023-08-06T14:01:03;5.15;;;1.58;;
81306;SDS011;70775;50.846;3.224;2023-08-06T14:03:30;3.28;;;1.58;;
81306;SDS011;70775;50.846;3.224;2023-08-06T14:05:56;5.10;;;1.50;;
81306;SDS011;70775;50.846;3.224;2023-08-06T14:08:22;7.72;;;1.80;;
81306;SDS011;70775;50.846;3.224;2023-08-06T14:10:49;4.07;;;1.50;;
81306;SDS011;70775;50.846;3.224;2023-08-06T14:13:15;5.85;;;1.60;;
81306;SDS011;70775;50.846;3.224;2023-08-06T14:15:41;6.53;;;1.85;;
81306;SDS011;70775;50.846;3.224;2023-08-06T14:18:07;5.70;;;1.42;;
81306;SDS011;70775;50.846;3.224;2023-08-06T14:20:35;2.83;;;1.42;;
81306;SDS011;70775;50.846;3.224;2023-08-06T14:23:01;7.10;;;1.90;;
81306;SDS011;70775;50.846;3.224;2023-08-06T14:25:27;5.30;;;1.83;;
81306;SDS011;70775;50.846;3.224;2023-08-06T14:27:52;4.93;;;1.80;;
81306;SDS011;70775;50.846;3.224;2023-08-06T14:30:18;4.57;;;1.67;;
81306;SDS011;70775;50.846;3.224;2023-08-06T14:32:44;5.88;;;1.60;;
81306;SDS011;70775;50.846;3.224;2023-08-06T14:35:09;6.95;;;1.80;;
81306;SDS011;70775;50.846;3.224;2023-08-06T14:37:35;4.20;;;1.67;;
81306;SDS011;70775;50.846;3.224;2023-08-06T14:40:02;5.97;;;1.70;;
81306;SDS011;70775;50.846;3.224;2023-08-06T14:42:29;7.07;;;1.85;;
81306;SDS011;70775;50.846;3.224;2023-08-06T14:44:55;4.65;;;1.35;;
81306;SDS011;70775;50.846;3.224;2023-08-06T14:47:21;3.33;;;1.40;;
81306;SDS011;70775;50.846;3.224;2023-08-06T14:49:46;4.32;;;1.45;;